Time;durP1;ratioP1;P1;durP2;ratioP2;P2;SDS_P1;SDS_P2;PMS_P1;PMS_P2;Temp;Humidity;BMP_temperature;BMP_pressure;BME280_temperature;BME280_humidity;BME280_pressure;Samples;Min_cycle;Max_cycle;Signal;HPM_P1;HPM_P2
2023/01/29 00:01:20;;;;;;;29.03;16.17;;;;;-2.70;102513.00;;;;10080757;29;20208;-81
2023/01/29 00:06:22;;;;;;;46.17;20.10;;;;;-2.60;102520.00;;;;10111180;29;20227;-81
2023/01/29 00:11:24;;;;;;;39.30;19.43;;;;;-2.60;102525.00;;;;10073440;29;20208;-80
2023/01/29 00:16:26;;;;;;;35.17;17.40;;;;;-2.60;102517.00;;;;10117417;29;20251;-80
2023/01/29 00:21:31;;;;;;;32.30;17.53;;;;;-2.60;102502.00;;;;10088515;29;20663;-80
2023/01/29 00:26:33;;;;;;;35.20;18.33;;;;;-2.70;102501.00;;;;10088649;29;20203;-80
2023/01/29 00:31:35;;;;;;;33.53;16.57;;;;;-2.70;102501.00;;;;10064934;29;20207;-80
2023/01/29 00:36:37;;;;;;;33.97;17.47;;;;;-2.70;102498.00;;;;10111383;29;20572;-81
2023/01/29 00:47:00;;;;;;;30.13;14.03;;;;;-2.80;102486.00;;;;10117406;29;20228;-80
2023/01/29 00:57:24;;;;;;;29.43;15.13;;;;;-2.70;102478.00;;;;10116042;29;20838;-80
2023/01/29 01:07:50;;;;;;;26.73;12.53;;;;;-2.50;102468.00;;;;10103104;29;20298;-81
2023/01/29 01:13:00;;;;;;;25.93;11.80;;;;;-2.40;102454.00;;;;10087312;29;21195;-80
2023/01/29 01:18:03;;;;;;;26.97;12.53;;;;;-2.40;102452.00;;;;10087149;29;20219;-81
2023/01/29 01:23:05;;;;;;;28.60;13.07;;;;;-2.30;102453.00;;;;10102861;29;20204;-81
2023/01/29 01:28:09;;;;;;;27.27;12.00;;;;;-2.40;102449.00;;;;10102282;29;20303;-81
2023/01/29 01:33:11;;;;;;;31.00;12.43;;;;;-2.40;102443.00;;;;10079357;29;20207;-82
2023/01/29 01:38:13;;;;;;;26.20;11.93;;;;;-2.40;102461.00;;;;10070745;29;20285;-81
2023/01/29 01:43:15;;;;;;;25.87;12.67;;;;;-2.40;102461.00;;;;10102172;29;20219;-81
2023/01/29 01:48:23;;;;;;;26.97;12.40;;;;;-2.40;102450.00;;;;10101036;29;20199;-81
2023/01/29 01:53:37;;;;;;;26.73;13.60;;;;;-2.50;102456.00;;;;10086323;29;20207;-81
2023/01/29 01:58:43;;;;;;;26.53;12.80;;;;;-2.60;102467.00;;;;10100250;29;20231;-81
2023/01/29 02:09:30;;;;;;;28.87;12.33;;;;;-2.70;102466.00;;;;10116918;29;20242;-81
2023/01/29 02:14:37;;;;;;;28.17;12.30;;;;;-2.80;102469.00;;;;10096825;29;20203;-81
2023/01/29 02:20:05;;;;;;;26.30;12.77;;;;;-2.90;102458.00;;;;10085270;29;20223;-80
2023/01/29 02:25:50;;;;;;;27.17;13.33;;;;;-2.90;102471.00;;;;10115662;29;20242;-81
2023/01/29 02:31:08;;;;;;;28.80;13.10;;;;;-3.00;102485.00;;;;10077249;29;20203;-81
2023/01/29 02:36:26;;;;;;;24.70;12.23;;;;;-3.10;102484.00;;;;10114812;29;20229;-81
2023/01/29 02:41:35;;;;;;;25.67;12.33;;;;;-3.10;102486.00;;;;10100183;29;20199;-81
2023/01/29 02:47:02;;;;;;;28.33;12.47;;;;;-3.10;102497.00;;;;10119000;29;20202;-81
2023/01/29 02:52:49;;;;;;;27.57;13.20;;;;;-3.10;102478.00;;;;10115595;29;20199;-81
2023/01/29 02:57:57;;;;;;;25.73;12.57;;;;;-3.20;102489.00;;;;10078766;29;20282;-80
2023/01/29 03:03:08;;;;;;;33.00;13.97;;;;;-3.20;102491.00;;;;10072053;29;20211;-81
2023/01/29 03:08:14;;;;;;;32.20;14.53;;;;;-3.20;102488.00;;;;10098826;29;20261;-81
2023/01/29 03:13:47;;;;;;;33.47;15.90;;;;;-3.20;102472.00;;;;10113358;29;20200;-81
2023/01/29 03:19:06;;;;;;;31.57;16.07;;;;;-3.20;102486.00;;;;10100892;29;20307;-82
2023/01/29 03:35:03;;;;;;;33.23;14.63;;;;;-3.20;102498.00;;;;10103563;29;20659;-80
2023/01/29 03:40:08;;;;;;;31.10;15.90;;;;;-3.20;102496.00;;;;10104090;29;20270;-81
2023/01/29 03:45:30;;;;;;;35.67;15.97;;;;;-3.30;102490.00;;;;10102317;29;20204;-81
2023/01/29 03:51:14;;;;;;;35.87;15.37;;;;;-3.00;102488.00;;;;10098589;29;20330;-82
2023/01/29 03:56:21;;;;;;;32.40;15.07;;;;;-2.80;102482.00;;;;10092488;29;20682;-81
2023/01/29 04:01:29;;;;;;;32.63;14.83;;;;;-2.80;102461.00;;;;10080955;29;20302;-80
2023/01/29 04:06:36;;;;;;;30.60;14.30;;;;;-2.80;102460.00;;;;10111140;29;20980;-81
2023/01/29 04:11:48;;;;;;;29.47;14.50;;;;;-2.70;102465.00;;;;10078155;29;20207;-81
2023/01/29 04:16:53;;;;;;;34.50;14.67;;;;;-2.70;102456.00;;;;10129266;29;20251;-81
2023/01/29 04:22:25;;;;;;;33.33;14.63;;;;;-2.60;102452.00;;;;10095270;29;20904;-80
2023/01/29 04:27:50;;;;;;;36.37;14.73;;;;;-2.40;102450.00;;;;10095285;29;20242;-81
2023/01/29 04:33:04;;;;;;;32.83;14.57;;;;;-2.30;102432.00;;;;10091277;29;20766;-82
2023/01/29 04:38:15;;;;;;;36.07;13.40;;;;;-2.20;102428.00;;;;10069653;29;20250;-80
2023/01/29 04:43:22;;;;;;;33.40;13.33;;;;;-2.10;102423.00;;;;10071738;29;20218;-81
2023/01/29 04:48:31;;;;;;;31.90;13.83;;;;;-2.10;102426.00;;;;10100020;29;20215;-81
2023/01/29 04:53:45;;;;;;;34.90;14.47;;;;;-2.00;102418.00;;;;10087970;29;20204;-81
2023/01/29 04:58:59;;;;;;;36.80;13.27;;;;;-1.80;102422.00;;;;10097818;29;20317;-81
2023/01/29 05:04:07;;;;;;;35.57;16.43;;;;;-1.80;102409.00;;;;10101105;29;20271;-81
2023/01/29 05:09:12;;;;;;;35.10;14.20;;;;;-1.70;102412.00;;;;10117172;29;20267;-81
2023/01/29 05:14:17;;;;;;;34.10;15.03;;;;;-1.70;102404.00;;;;10064234;29;20215;-80
2023/01/29 05:19:19;;;;;;;29.77;13.37;;;;;-1.70;102403.00;;;;10101579;29;20223;-81
2023/01/29 05:24:25;;;;;;;33.97;14.53;;;;;-1.60;102419.00;;;;10085892;29;20734;-81
2023/01/29 05:29:27;;;;;;;31.67;13.77;;;;;-1.60;102393.00;;;;10097651;29;20322;-81
2023/01/29 05:34:29;;;;;;;37.03;17.30;;;;;-1.50;102378.00;;;;10104998;29;20259;-81
2023/01/29 05:39:31;;;;;;;38.27;16.20;;;;;-1.40;102386.00;;;;10098508;29;20753;-81
2023/01/29 05:44:33;;;;;;;36.67;15.20;;;;;-1.20;102376.00;;;;10086062;29;20212;-81
2023/01/29 05:49:35;;;;;;;37.03;15.13;;;;;-1.20;102384.00;;;;10070466;29;20683;-81
2023/01/29 05:54:39;;;;;;;32.37;14.70;;;;;-1.10;102383.00;;;;10085443;29;20199;-80
2023/01/29 05:59:41;;;;;;;33.90;15.07;;;;;-1.00;102400.00;;;;10062118;29;20246;-80
2023/01/29 06:04:43;;;;;;;42.70;18.00;;;;;-0.90;102389.00;;;;10077079;29;20302;-80
2023/01/29 06:09:45;;;;;;;40.97;16.80;;;;;-0.80;102390.00;;;;10092276;29;20566;-80
2023/01/29 06:14:47;;;;;;;34.80;16.03;;;;;-0.80;102402.00;;;;10086895;29;20659;-82
2023/01/29 06:19:49;;;;;;;36.77;17.13;;;;;-0.70;102390.00;;;;10092700;29;20243;-81
2023/01/29 06:24:51;;;;;;;32.07;14.77;;;;;-0.70;102378.00;;;;10083547;29;20204;-80
2023/01/29 06:29:53;;;;;;;39.30;16.00;;;;;-0.70;102394.00;;;;10083867;29;20211;-81
2023/01/29 06:34:55;;;;;;;41.70;15.80;;;;;-0.60;102394.00;;;;10113314;29;20571;-80
2023/01/29 06:39:57;;;;;;;41.93;19.40;;;;;-0.50;102399.00;;;;10098899;29;20246;-81
2023/01/29 06:44:59;;;;;;;38.17;17.57;;;;;-0.40;102397.00;;;;10074375;29;20207;-80
2023/01/29 06:50:01;;;;;;;41.70;17.80;;;;;-0.40;102399.00;;;;10065428;29;20203;-82
2023/01/29 06:55:03;;;;;;;37.53;17.17;;;;;-0.30;102389.00;;;;10097771;29;20315;-80
2023/01/29 07:00:06;;;;;;;41.93;18.00;;;;;-0.30;102384.00;;;;10059349;29;20326;-81
2023/01/29 07:05:08;;;;;;;33.33;16.23;;;;;-0.20;102406.00;;;;10096928;29;20210;-81
2023/01/29 07:10:10;;;;;;;42.17;19.43;;;;;-0.20;102407.00;;;;10097260;29;20306;-80
2023/01/29 07:15:12;;;;;;;43.97;18.50;;;;;-0.20;102404.00;;;;10089856;29;20234;-80
2023/01/29 07:20:14;;;;;;;41.83;17.17;;;;;-0.10;102390.00;;;;10081093;29;20748;-80
2023/01/29 07:25:17;;;;;;;39.90;17.13;;;;;-0.10;102376.00;;;;10126819;29;20207;-81
2023/01/29 07:30:18;;;;;;;40.97;18.10;;;;;-0.10;102366.00;;;;10093098;29;20207;-81
2023/01/29 07:35:20;;;;;;;48.50;20.17;;;;;0.00;102366.00;;;;10080682;29;20212;-81
2023/01/29 07:40:22;;;;;;;42.47;17.93;;;;;0.10;102369.00;;;;10065259;29;20318;-81
2023/01/29 07:45:24;;;;;;;37.33;18.27;;;;;0.10;102385.00;;;;10076783;29;20199;-81
2023/01/29 07:50:26;;;;;;;39.40;17.47;;;;;0.20;102370.00;;;;10092364;29;20207;-81
2023/01/29 07:55:29;;;;;;;44.37;19.33;;;;;0.30;102373.00;;;;10089265;29;20733;-81
2023/01/29 08:00:31;;;;;;;42.40;18.73;;;;;0.30;102374.00;;;;10097195;29;20239;-81
2023/01/29 08:05:33;;;;;;;42.93;20.03;;;;;0.40;102359.00;;;;10096535;29;20305;-81
2023/01/29 08:10:37;;;;;;;44.83;20.17;;;;;0.50;102374.00;;;;10082278;29;20865;-82
2023/01/29 08:15:43;;;;;;;47.20;19.90;;;;;0.60;102368.00;;;;10090579;29;20608;-82
2023/01/29 08:20:45;;;;;;;40.20;20.40;;;;;0.60;102372.00;;;;10105044;29;20235;-82
2023/01/29 08:25:47;;;;;;;44.53;20.53;;;;;0.70;102382.00;;;;10064666;29;20218;-81
2023/01/29 08:30:49;;;;;;;45.40;20.30;;;;;0.70;102375.00;;;;10107568;29;20228;-81
2023/01/29 08:35:51;;;;;;;39.40;20.00;;;;;0.90;102387.00;;;;10071483;29;20200;-81
2023/01/29 08:40:53;;;;;;;46.37;18.57;;;;;1.00;102364.00;;;;10101957;29;20235;-81
2023/01/29 08:45:55;;;;;;;44.97;18.73;;;;;1.10;102360.00;;;;10103313;29;20686;-81
2023/01/29 08:50:58;;;;;;;40.87;16.83;;;;;1.30;102359.00;;;;10078143;29;20287;-81
2023/01/29 08:56:00;;;;;;;42.47;18.00;;;;;1.50;102360.00;;;;10080129;29;20207;-81
2023/01/29 09:01:11;;;;;;;39.33;18.03;;;;;1.70;102354.00;;;;10110702;29;20227;-80
2023/01/29 09:06:14;;;;;;;37.23;17.77;;;;;1.90;102341.00;;;;10081613;29;20254;-80
2023/01/29 09:11:16;;;;;;;38.47;17.23;;;;;2.00;102355.00;;;;10099954;29;20556;-81
2023/01/29 09:16:18;;;;;;;33.57;16.87;;;;;2.00;102351.00;;;;10099310;29;20230;-80
2023/01/29 09:21:20;;;;;;;36.73;15.90;;;;;2.00;102359.00;;;;10100412;29;20257;-80
2023/01/29 09:26:22;;;;;;;36.50;15.87;;;;;1.90;102359.00;;;;10069049;29;20206;-80
2023/01/29 09:31:23;;;;;;;38.93;15.57;;;;;1.90;102357.00;;;;10083419;29;20674;-80
2023/01/29 09:36:25;;;;;;;34.00;16.13;;;;;1.90;102349.00;;;;10094573;29;20895;-80
2023/01/29 09:41:30;;;;;;;31.97;15.53;;;;;2.00;102354.00;;;;10083268;29;20203;-80
2023/01/29 09:46:39;;;;;;;31.67;16.00;;;;;2.00;102352.00;;;;10083096;29;20199;-80
2023/01/29 09:51:47;;;;;;;31.27;16.20;;;;;2.10;102339.00;;;;10098471;29;20231;-80
2023/01/29 09:56:53;;;;;;;26.87;13.97;;;;;2.10;102345.00;;;;10075473;29;20266;-80
2023/01/29 10:02:21;;;;;;;32.80;15.47;;;;;2.20;102337.00;;;;10083244;29;20298;-80
2023/01/29 10:07:35;;;;;;;33.33;16.03;;;;;2.30;102341.00;;;;10097992;29;20318;-80
2023/01/29 10:12:52;;;;;;;31.90;14.87;;;;;2.40;102337.00;;;;10075334;29;20210;-81
2023/01/29 10:18:32;;;;;;;30.27;15.93;;;;;2.50;102340.00;;;;10058640;29;20234;-81
2023/01/29 10:23:56;;;;;;;35.23;17.13;;;;;2.60;102336.00;;;;10065916;29;20220;-80
2023/01/29 10:29:00;;;;;;;30.83;15.40;;;;;2.70;102330.00;;;;10097795;29;20664;-80
2023/01/29 10:34:13;;;;;;;30.83;15.03;;;;;2.80;102323.00;;;;10104738;29;20202;-80
2023/01/29 10:39:21;;;;;;;31.60;15.70;;;;;2.90;102317.00;;;;10082956;29;20224;-80
2023/01/29 10:44:42;;;;;;;29.57;14.33;;;;;3.00;102314.00;;;;10081818;29;20203;-81
2023/01/29 10:49:50;;;;;;;28.13;14.80;;;;;3.10;102313.00;;;;10064833;29;20203;-80
2023/01/29 10:54:51;;;;;;;29.07;15.03;;;;;3.10;102312.00;;;;10093353;29;20234;-80
2023/01/29 11:00:18;;;;;;;29.90;15.73;;;;;3.30;102306.00;;;;10092334;29;20262;-81
2023/01/29 11:05:35;;;;;;;28.43;13.70;;;;;3.40;102308.00;;;;10095266;29;20743;-80
2023/01/29 11:10:44;;;;;;;28.20;14.13;;;;;3.50;102292.00;;;;10090886;29;20203;-80
2023/01/29 11:15:51;;;;;;;24.00;12.67;;;;;3.70;102282.00;;;;10110494;29;20279;-80
2023/01/29 11:21:02;;;;;;;24.63;12.77;;;;;3.80;102282.00;;;;10084578;29;20319;-81
2023/01/29 11:26:05;;;;;;;23.23;12.37;;;;;3.90;102270.00;;;;10093678;29;20214;-79
2023/01/29 11:31:20;;;;;;;25.63;13.90;;;;;4.00;102262.00;;;;10079229;29;20214;-81
2023/01/29 11:36:31;;;;;;;22.37;12.27;;;;;4.10;102245.00;;;;10079447;29;20297;-80
2023/01/29 11:42:07;;;;;;;22.40;12.40;;;;;4.20;102235.00;;;;10095423;29;20235;-80
2023/01/29 11:47:26;;;;;;;23.00;12.97;;;;;4.30;102209.00;;;;10068471;29;20215;-81
2023/01/29 11:52:37;;;;;;;24.30;12.60;;;;;4.50;102200.00;;;;10075948;29;20231;-80
2023/01/29 11:57:47;;;;;;;27.63;12.57;;;;;4.70;102196.00;;;;10090077;29;20215;-81
2023/01/29 12:03:01;;;;;;;26.13;13.43;;;;;4.90;102187.00;;;;10094113;29;20200;-81
2023/01/29 12:08:13;;;;;;;21.43;11.80;;;;;5.00;102179.00;;;;10093617;29;20262;-81
2023/01/29 12:13:25;;;;;;;23.53;11.87;;;;;5.10;102180.00;;;;10101787;29;20226;-80
2023/01/29 12:18:39;;;;;;;21.60;11.23;;;;;5.20;102174.00;;;;10123147;29;20234;-80
2023/01/29 12:23:51;;;;;;;19.60;11.20;;;;;5.30;102175.00;;;;10093251;29;20211;-80
2023/01/29 12:29:13;;;;;;;20.40;10.77;;;;;5.20;102161.00;;;;10090784;29;20207;-80
2023/01/29 12:34:38;;;;;;;20.77;11.07;;;;;5.30;102148.00;;;;10110462;29;20259;-81
2023/01/29 12:39:39;;;;;;;19.20;10.50;;;;;5.30;102136.00;;;;10086784;29;20309;-80
2023/01/29 12:44:46;;;;;;;16.03;10.27;;;;;5.40;102117.00;;;;10077922;29;20208;-81
2023/01/29 12:49:54;;;;;;;20.73;9.97;;;;;5.40;102109.00;;;;10100511;29;20605;-80
2023/01/29 12:55:05;;;;;;;17.53;10.47;;;;;5.70;102107.00;;;;10055533;29;20208;-80
2023/01/29 13:00:15;;;;;;;18.67;10.73;;;;;5.80;102092.00;;;;10060425;29;20235;-81
2023/01/29 13:05:39;;;;;;;18.73;10.93;;;;;5.80;102097.00;;;;10092214;29;20206;-80
2023/01/29 13:10:47;;;;;;;15.23;9.13;;;;;5.70;102091.00;;;;10100039;29;20200;-80
2023/01/29 13:15:51;;;;;;;19.47;9.73;;;;;5.40;102082.00;;;;10102099;29;20211;-80
2023/01/29 13:20:53;;;;;;;18.23;10.73;;;;;5.20;102074.00;;;;10115217;29;20223;-81
2023/01/29 13:25:56;;;;;;;17.77;9.97;;;;;5.30;102069.00;;;;10106455;29;20583;-81
2023/01/29 13:31:11;;;;;;;20.60;10.37;;;;;5.40;102061.00;;;;10116320;29;20204;-81
2023/01/29 13:36:24;;;;;;;16.57;10.43;;;;;5.40;102050.00;;;;10086961;29;20210;-80
2023/01/29 13:41:34;;;;;;;17.80;10.43;;;;;5.30;102047.00;;;;10113999;29;20236;-80
2023/01/29 13:46:40;;;;;;;17.17;9.40;;;;;5.20;102043.00;;;;10088621;29;20195;-80
2023/01/29 13:51:42;;;;;;;12.00;7.83;;;;;5.10;102038.00;;;;10083137;29;20596;-80
2023/01/29 13:56:58;;;;;;;15.73;8.60;;;;;5.00;102039.00;;;;10099050;29;20222;-80
2023/01/29 14:02:03;;;;;;;16.17;8.83;;;;;4.90;102029.00;;;;10096842;29;20223;-81
2023/01/29 14:07:43;;;;;;;16.87;8.93;;;;;4.90;102021.00;;;;10098320;29;20263;-80
2023/01/29 14:12:46;;;;;;;16.03;8.90;;;;;4.80;102013.00;;;;10086665;29;20222;-81
2023/01/29 14:18:15;;;;;;;15.37;8.97;;;;;4.80;102006.00;;;;10087163;29;20215;-81
2023/01/29 14:23:43;;;;;;;16.27;9.70;;;;;4.70;101994.00;;;;10095931;29;20204;-81
2023/01/29 14:28:55;;;;;;;15.67;9.13;;;;;4.60;101999.00;;;;10101330;29;20216;-81
2023/01/29 14:34:03;;;;;;;15.03;9.07;;;;;4.50;102011.00;;;;10060178;29;20740;-81
2023/01/29 14:39:15;;;;;;;14.17;8.33;;;;;4.50;102006.00;;;;10109329;29;20225;-81
2023/01/29 14:44:47;;;;;;;13.57;9.23;;;;;4.50;102007.00;;;;10096684;29;20268;-81
2023/01/29 14:49:53;;;;;;;14.80;8.87;;;;;4.50;102003.00;;;;10081141;29;20566;-81
2023/01/29 14:54:59;;;;;;;14.40;8.13;;;;;4.60;102003.00;;;;10111062;29;20207;-81
2023/01/29 15:00:04;;;;;;;17.40;8.60;;;;;4.60;101999.00;;;;10058059;29;20219;-81
2023/01/29 15:05:12;;;;;;;15.67;9.50;;;;;4.60;101992.00;;;;10096839;29;20254;-81
2023/01/29 15:10:26;;;;;;;17.30;9.87;;;;;4.60;101987.00;;;;10100654;29;20223;-81
2023/01/29 15:15:51;;;;;;;16.10;9.83;;;;;4.50;101987.00;;;;10097177;29;20203;-81
2023/01/29 15:21:23;;;;;;;18.27;10.50;;;;;4.40;101982.00;;;;10074095;29;20216;-81
2023/01/29 15:26:25;;;;;;;16.90;10.20;;;;;4.30;101986.00;;;;10069075;29;20212;-82
2023/01/29 15:31:28;;;;;;;20.33;11.77;;;;;4.20;101993.00;;;;10091641;29;20210;-81
2023/01/29 15:36:31;;;;;;;20.23;12.20;;;;;4.10;101993.00;;;;10082864;29;20231;-81
2023/01/29 15:41:33;;;;;;;23.90;10.17;;;;;4.00;101995.00;;;;10110408;29;20266;-80
2023/01/29 15:46:38;;;;;;;24.37;13.93;;;;;3.90;101988.00;;;;10095866;29;20199;-81
2023/01/29 15:51:41;;;;;;;24.10;12.70;;;;;3.90;101970.00;;;;10064983;29;20204;-81
2023/01/29 15:56:47;;;;;;;29.80;14.93;;;;;3.80;101965.00;;;;10117409;29;20207;-81
2023/01/29 16:01:49;;;;;;;27.10;13.87;;;;;3.70;101966.00;;;;10095699;29;20698;-81
2023/01/29 16:06:53;;;;;;;30.53;14.90;;;;;3.70;101959.00;;;;10079839;29;20219;-81
2023/01/29 16:11:57;;;;;;;30.57;15.70;;;;;3.60;101954.00;;;;10110366;29;20211;-82
2023/01/29 16:17:20;;;;;;;26.50;14.23;;;;;3.50;101949.00;;;;10084402;29;20797;-81
2023/01/29 16:22:23;;;;;;;27.37;13.57;;;;;3.40;101948.00;;;;10104200;29;20219;-81
2023/01/29 16:27:25;;;;;;;28.90;13.93;;;;;3.40;101952.00;;;;10079380;29;20212;-81
2023/01/29 16:32:29;;;;;;;26.73;14.30;;;;;3.40;101939.00;;;;10070079;29;20222;-81
2023/01/29 16:37:34;;;;;;;33.60;14.97;;;;;3.40;101933.00;;;;10116752;29;20211;-81
2023/01/29 16:42:37;;;;;;;34.13;16.13;;;;;3.30;101923.00;;;;10086087;29;20211;-81
2023/01/29 16:47:42;;;;;;;26.47;12.73;;;;;3.30;101901.00;;;;10113415;29;20274;-80
2023/01/29 16:53:01;;;;;;;27.57;13.00;;;;;3.30;101907.00;;;;10094843;29;20196;-81
2023/01/29 16:58:29;;;;;;;29.37;14.97;;;;;3.30;101905.00;;;;10086375;29;20337;-81
2023/01/29 17:03:32;;;;;;;30.97;14.30;;;;;3.30;101892.00;;;;10086357;29;20259;-81
2023/01/29 17:08:35;;;;;;;30.30;14.63;;;;;3.30;101906.00;;;;10101152;29;20948;-81
2023/01/29 17:13:43;;;;;;;30.20;14.73;;;;;3.30;101895.00;;;;10096458;29;20208;-81
2023/01/29 17:18:45;;;;;;;23.93;13.23;;;;;3.30;101883.00;;;;10107896;29;20314;-81
2023/01/29 17:23:47;;;;;;;21.50;12.30;;;;;3.30;101896.00;;;;10073582;29;20208;-80
2023/01/29 17:28:51;;;;;;;27.93;13.87;;;;;3.30;101900.00;;;;10078774;29;20200;-81
2023/01/29 17:33:53;;;;;;;30.73;15.63;;;;;3.30;101885.00;;;;10115326;29;20203;-80
2023/01/29 17:38:55;;;;;;;28.93;14.73;;;;;3.30;101888.00;;;;10115783;29;20247;-81
2023/01/29 17:43:57;;;;;;;27.80;15.20;;;;;3.30;101886.00;;;;10111357;29;20218;-81
2023/01/29 17:48:59;;;;;;;29.27;14.70;;;;;3.30;101876.00;;;;10099543;29;20981;-81
2023/01/29 17:54:01;;;;;;;29.37;14.30;;;;;3.30;101878.00;;;;10115008;29;20208;-81
2023/01/29 17:59:13;;;;;;;28.50;14.40;;;;;3.20;101871.00;;;;10085105;29;20208;-81
2023/01/29 18:04:16;;;;;;;27.90;15.60;;;;;3.20;101858.00;;;;10089506;29;20302;-82
2023/01/29 18:09:20;;;;;;;28.73;16.10;;;;;3.20;101862.00;;;;10067958;29;20227;-81
2023/01/29 18:14:22;;;;;;;28.20;12.93;;;;;3.20;101853.00;;;;10075800;29;20204;-81
2023/01/29 18:19:29;;;;;;;30.13;15.20;;;;;3.10;101852.00;;;;10067500;29;20808;-80
2023/01/29 18:24:32;;;;;;;30.10;15.97;;;;;3.10;101861.00;;;;10113620;29;20204;-81
2023/01/29 18:29:34;;;;;;;32.70;15.17;;;;;3.00;101839.00;;;;10112471;29;20259;-81
2023/01/29 18:34:37;;;;;;;29.27;15.20;;;;;3.00;101830.00;;;;10081715;29;20211;-81
2023/01/29 18:39:39;;;;;;;31.53;15.80;;;;;3.00;101841.00;;;;10077920;29;20647;-81
2023/01/29 18:44:41;;;;;;;31.70;15.97;;;;;3.10;101841.00;;;;10075170;29;20250;-81
2023/01/29 18:49:43;;;;;;;28.03;15.50;;;;;3.10;101826.00;;;;10105406;29;20211;-81
2023/01/29 18:54:45;;;;;;;30.60;15.43;;;;;3.20;101808.00;;;;10066691;29;20202;-81
2023/01/29 18:59:47;;;;;;;30.83;15.17;;;;;3.20;101800.00;;;;10104578;29;20215;-81
2023/01/29 19:04:50;;;;;;;27.27;15.67;;;;;3.20;101787.00;;;;10080531;29;20207;-81
2023/01/29 19:09:52;;;;;;;35.40;17.20;;;;;3.20;101784.00;;;;10119840;29;20247;-81
2023/01/29 19:14:54;;;;;;;33.87;16.67;;;;;3.30;101779.00;;;;10096426;29;20228;-81
2023/01/29 19:20:00;;;;;;;27.97;12.57;;;;;3.30;101766.00;;;;10097875;29;20316;-82
2023/01/29 19:25:04;;;;;;;28.20;14.40;;;;;3.30;101757.00;;;;10072794;29;20207;-80
2023/01/29 19:30:06;;;;;;;30.37;16.40;;;;;3.30;101773.00;;;;10064150;29;20208;-81
2023/01/29 19:35:08;;;;;;;34.30;16.20;;;;;3.20;101778.00;;;;10111467;29;20279;-81
2023/01/29 19:40:10;;;;;;;32.50;15.83;;;;;3.20;101777.00;;;;10101921;29;20522;-81
2023/01/29 19:45:12;;;;;;;26.33;13.17;;;;;3.20;101754.00;;;;10072163;29;20215;-80
2023/01/29 19:50:14;;;;;;;33.53;16.10;;;;;3.10;101745.00;;;;10063700;29;20685;-80
2023/01/29 19:55:17;;;;;;;34.43;16.30;;;;;3.10;101717.00;;;;10064514;29;20260;-81
2023/01/29 20:00:20;;;;;;;31.03;16.03;;;;;3.20;101709.00;;;;10087521;29;20235;-81
2023/01/29 20:05:22;;;;;;;29.47;15.67;;;;;3.30;101713.00;;;;10094601;29;20215;-81
2023/01/29 20:10:26;;;;;;;32.17;17.23;;;;;3.30;101703.00;;;;10062380;29;20199;-80
2023/01/29 20:15:28;;;;;;;28.50;15.43;;;;;3.40;101704.00;;;;10075938;29;20287;-81
2023/01/29 20:20:30;;;;;;;33.43;17.90;;;;;3.40;101685.00;;;;10063664;29;20227;-81
2023/01/29 20:25:34;;;;;;;35.37;17.27;;;;;3.40;101698.00;;;;10105939;29;20264;-81
2023/01/29 20:30:37;;;;;;;37.50;18.07;;;;;3.40;101695.00;;;;10067159;29;20923;-81
2023/01/29 20:35:39;;;;;;;33.90;16.70;;;;;3.40;101702.00;;;;10068477;29;20203;-81
2023/01/29 20:40:41;;;;;;;32.73;17.10;;;;;3.50;101710.00;;;;10108472;29;20860;-81
2023/01/29 20:45:43;;;;;;;36.40;18.13;;;;;3.60;101701.00;;;;10083330;29;20211;-81
2023/01/29 20:50:45;;;;;;;35.23;18.63;;;;;3.70;101718.00;;;;10097236;29;20263;-81
2023/01/29 20:55:47;;;;;;;31.57;17.33;;;;;3.70;101737.00;;;;10093158;29;20255;-80
2023/01/29 21:00:49;;;;;;;30.27;17.97;;;;;3.70;101713.00;;;;10090962;29;20223;-81
2023/01/29 21:05:53;;;;;;;32.40;16.70;;;;;3.70;101694.00;;;;10093504;29;20279;-80
2023/01/29 21:10:55;;;;;;;32.33;17.17;;;;;3.70;101717.00;;;;10085990;29;20207;-80
2023/01/29 21:15:57;;;;;;;30.43;15.77;;;;;3.70;101687.00;;;;10101781;29;20251;-80
2023/01/29 21:20:59;;;;;;;31.53;17.03;;;;;3.70;101700.00;;;;10067245;29;20722;-80
2023/01/29 21:26:04;;;;;;;32.77;17.87;;;;;3.80;101702.00;;;;10099350;29;20226;-81
2023/01/29 21:31:13;;;;;;;33.13;18.27;;;;;3.80;101702.00;;;;10059924;29;20250;-80
2023/01/29 21:36:15;;;;;;;32.47;17.53;;;;;3.80;101712.00;;;;10124113;29;20414;-80
2023/01/29 21:41:17;;;;;;;31.93;16.67;;;;;3.90;101702.00;;;;10078703;29;20231;-80
2023/01/29 21:46:19;;;;;;;33.20;16.93;;;;;3.90;101702.00;;;;10080851;29;20761;-80
2023/01/29 21:51:22;;;;;;;27.83;13.67;;;;;3.90;101688.00;;;;10098777;29;20587;-80
2023/01/29 21:56:24;;;;;;;28.50;16.03;;;;;4.00;101685.00;;;;10051758;29;20582;-81
2023/01/29 22:01:26;;;;;;;29.50;16.40;;;;;4.00;101678.00;;;;10097711;29;20222;-80
2023/01/29 22:06:39;;;;;;;27.97;16.17;;;;;4.10;101682.00;;;;10113025;29;20224;-80
2023/01/29 22:11:41;;;;;;;27.77;16.20;;;;;4.20;101689.00;;;;10096036;29;20641;-81
2023/01/29 22:16:44;;;;;;;28.03;15.00;;;;;4.20;101700.00;;;;10112960;29;20207;-80
2023/01/29 22:21:46;;;;;;;33.17;17.13;;;;;4.30;101696.00;;;;10080547;29;20223;-80
2023/01/29 22:26:48;;;;;;;29.93;16.77;;;;;4.30;101682.00;;;;10110853;29;20207;-81
2023/01/29 22:31:50;;;;;;;26.77;16.03;;;;;4.40;101658.00;;;;10079603;29;20205;-80
2023/01/29 22:36:52;;;;;;;28.70;17.23;;;;;4.40;101589.00;;;;10096917;29;20204;-81
2023/01/29 22:41:54;;;;;;;29.67;14.73;;;;;4.40;101593.00;;;;10058339;29;20250;-80
2023/01/29 22:46:56;;;;;;;30.30;16.00;;;;;4.40;101581.00;;;;10115246;29;20199;-80
2023/01/29 22:52:10;;;;;;;28.17;15.50;;;;;4.40;101620.00;;;;10088295;29;20204;-81
2023/01/29 22:57:13;;;;;;;28.57;15.43;;;;;4.50;101626.00;;;;10111597;29;20298;-81
2023/01/29 23:02:15;;;;;;;28.67;15.77;;;;;4.50;101639.00;;;;10103565;29;20305;-80
2023/01/29 23:07:17;;;;;;;27.23;14.73;;;;;4.50;101645.00;;;;10110947;29;20220;-80
2023/01/29 23:12:19;;;;;;;27.83;16.63;;;;;4.50;101633.00;;;;10079502;29;20210;-80
2023/01/29 23:17:21;;;;;;;31.33;15.97;;;;;4.50;101619.00;;;;10089878;29;20200;-80
2023/01/29 23:22:23;;;;;;;32.57;16.87;;;;;4.50;101597.00;;;;10095328;29;20302;-80
2023/01/29 23:27:25;;;;;;;25.27;14.87;;;;;4.50;101579.00;;;;10079796;29;20216;-80
2023/01/29 23:32:27;;;;;;;31.07;16.43;;;;;4.50;101564.00;;;;10094828;29;20215;-80
2023/01/29 23:37:29;;;;;;;32.57;16.40;;;;;4.50;101573.00;;;;10109189;29;20247;-81
2023/01/29 23:42:31;;;;;;;33.73;16.17;;;;;4.50;101581.00;;;;10063662;29;20318;-80
2023/01/29 23:47:33;;;;;;;29.77;16.10;;;;;4.60;101552.00;;;;10093318;29;20212;-81
2023/01/29 23:52:35;;;;;;;32.73;16.27;;;;;4.60;101550.00;;;;10095260;29;20293;-80
2023/01/29 23:57:37;;;;;;;31.83;17.43;;;;;4.60;101528.00;;;;10093790;29;20580;-80
